الصفحة الرئيسية
METAR-TAF:

METAR-TAF

مطار :

مطار ميامي الدولي

ميامي, فلوريدا, الولايات المتحدة

دائرة عرض: 25-47-26N, خط طول: 080-18-59W, ارتفاع: 3 متر

مراقبة الطقس الحالي

تاريخ ووقت الإصدار 19 دقيقة قبل الساعة 23:53UTC
ريح 5 عقدة من الجنوب/الجنوب الشرقي
درجة الحرارة 27°درجة مئوية
الرطوبة 84%
ضغط 1015 hPa
الرؤية: 16.1 كم
غيوم قليلة على ارتفاع 3300 قدم

METAR: KMIA 202353Z 15005KT 10SM FEW033 27/24 A2997 RMK AO2 SLP149 T02720239 10311 20272 53007

زمن: 20:12 (00:12 UTC)

توقعات

تاريخ ووقت الإصدار 40 دقيقة قبل الساعة 23:32UTC
التوقعات صالحة من21 الساعة 00 UTC إلى 22 الساعة 06 UTC
ريح 3 عقدةمن اتجاهات متغيرة
الرؤية: 10 كم
غيوم متفرقة على ارتفاع 3000 قدم
من 21 الساعة 1600 UTC
ريح 10 عقدة من الشمال/الشمال الشرقي
الرؤية: 10 كم
غيوم متفرقة على ارتفاع 3000 قدم
غيوم مفككة على ارتفاع 7000 قدم
من 21 الساعة 2300 UTC
ريح 10 عقدة من الشمال الشرقي
الرؤية: 10 كم
غيوم متفرقة على ارتفاع 2000 قدم
غيوم مفككة على ارتفاع 5000 قدم
زخات في الجوار

TAF: KMIA 202332Z 2100/2206 VRB03KT P6SM SCT030 FM211600 03010KT P6SM SCT030 BKN070 FM212300 05010KT P6SM VCSH SCT020 BKN050

أرصاد الطقس والتوقعات من أكثر من 4000 مطار (تقارير الطقس للمطار METAR والتنبؤ بالطقس بالمطارTAF).

المحطات المتاحة هي النقط الصفراء والحمراء على الخريطة.

حرك المؤشر فوق النقطة لمعرفة اسم المحطة.

ثم انقر لمعرفة أرصاد وتوقعات الطقس.

لتغيير الخارطة: اضغط على الأزرار الخضراء مع رمز الصليب الأسود للتكبير. على الزر الأخضر مع شرطة للتصغير، أو على الأسهم الخضراء للخرائط المجاورة.


METAR-TAF: